sensor_id;sensor_type;location;lat;lon;timestamp;pressure;altitude;pressure_sealevel;temperature;humidity
61573;BME280;47465;43.094;12.434;2022-09-09T00:00:11;98520.28;;;19.50;100.00
61573;BME280;47465;43.094;12.434;2022-09-09T00:02:37;98542.09;;;19.60;100.00
61573;BME280;47465;43.094;12.434;2022-09-09T00:05:16;98511.53;;;19.47;100.00
61573;BME280;47465;43.094;12.434;2022-09-09T00:07:47;98521.50;;;19.59;100.00
61573;BME280;47465;43.094;12.434;2022-09-09T00:10:20;98503.69;;;19.57;100.00
61573;BME280;47465;43.094;12.434;2022-09-09T00:12:55;98515.03;;;19.62;100.00
61573;BME280;47465;43.094;12.434;2022-09-09T00:15:25;98513.19;;;19.62;100.00
61573;BME280;47465;43.094;12.434;2022-09-09T00:17:56;98508.19;;;19.70;100.00
61573;BME280;47465;43.094;12.434;2022-09-09T00:20:30;98501.53;;;19.62;100.00
61573;BME280;47465;43.094;12.434;2022-09-09T00:23:02;98496.25;;;19.60;100.00
61573;BME280;47465;43.094;12.434;2022-09-09T00:25:35;98481.38;;;19.55;100.00
61573;BME280;47465;43.094;12.434;2022-09-09T00:28:13;98488.28;;;19.59;100.00
61573;BME280;47465;43.094;12.434;2022-09-09T00:30:43;98503.16;;;19.64;100.00
61573;BME280;47465;43.094;12.434;2022-09-09T00:33:11;98478.97;;;19.50;100.00
61573;BME280;47465;43.094;12.434;2022-09-09T00:35:45;98493.56;;;19.47;100.00
61573;BME280;47465;43.094;12.434;2022-09-09T00:38:14;98501.91;;;19.43;100.00
61573;BME280;47465;43.094;12.434;2022-09-09T00:40:45;98492.75;;;19.33;100.00
61573;BME280;47465;43.094;12.434;2022-09-09T00:43:25;98494.38;;;19.35;100.00
61573;BME280;47465;43.094;12.434;2022-09-09T00:46:01;98499.09;;;19.32;100.00
61573;BME280;47465;43.094;12.434;2022-09-09T00:48:36;98468.84;;;19.14;100.00
61573;BME280;47465;43.094;12.434;2022-09-09T00:51:13;98488.84;;;19.24;100.00
61573;BME280;47465;43.094;12.434;2022-09-09T00:54:00;98493.25;;;19.25;100.00
61573;BME280;47465;43.094;12.434;2022-09-09T00:56:30;98497.69;;;19.26;100.00
61573;BME280;47465;43.094;12.434;2022-09-09T00:59:03;98487.31;;;19.20;100.00
61573;BME280;47465;43.094;12.434;2022-09-09T01:01:33;98508.31;;;19.42;100.00
61573;BME280;47465;43.094;12.434;2022-09-09T01:04:05;98513.91;;;19.52;100.00
61573;BME280;47465;43.094;12.434;2022-09-09T01:06:37;98526.34;;;19.54;100.00
61573;BME280;47465;43.094;12.434;2022-09-09T01:09:19;98504.53;;;19.44;100.00
61573;BME280;47465;43.094;12.434;2022-09-09T01:11:55;98497.75;;;19.52;100.00
61573;BME280;47465;43.094;12.434;2022-09-09T01:14:40;98502.38;;;19.49;100.00
61573;BME280;47465;43.094;12.434;2022-09-09T01:17:12;98525.63;;;19.65;100.00
61573;BME280;47465;43.094;12.434;2022-09-09T01:19:49;98502.28;;;19.51;100.00
61573;BME280;47465;43.094;12.434;2022-09-09T01:22:26;98517.09;;;19.58;100.00
61573;BME280;47465;43.094;12.434;2022-09-09T01:25:17;98494.81;;;19.42;100.00
61573;BME280;47465;43.094;12.434;2022-09-09T01:27:46;98491.72;;;19.48;100.00
61573;BME280;47465;43.094;12.434;2022-09-09T01:30:15;98506.19;;;19.60;100.00
61573;BME280;47465;43.094;12.434;2022-09-09T01:32:44;98496.25;;;19.60;100.00
61573;BME280;47465;43.094;12.434;2022-09-09T01:35:14;98473.59;;;19.50;100.00
61573;BME280;47465;43.094;12.434;2022-09-09T01:37:41;98473.06;;;19.58;100.00
61573;BME280;47465;43.094;12.434;2022-09-09T01:40:07;98473.94;;;19.58;100.00
61573;BME280;47465;43.094;12.434;2022-09-09T01:42:33;98458.94;;;19.54;100.00
61573;BME280;47465;43.094;12.434;2022-09-09T01:45:01;98468.38;;;19.74;100.00
61573;BME280;47465;43.094;12.434;2022-09-09T01:47:27;98478.06;;;19.77;100.00
61573;BME280;47465;43.094;12.434;2022-09-09T01:49:53;98473.34;;;19.80;100.00
61573;BME280;47465;43.094;12.434;2022-09-09T01:52:19;98464.50;;;19.78;100.00
61573;BME280;47465;43.094;12.434;2022-09-09T01:54:44;98457.56;;;19.74;100.00
61573;BME280;47465;43.094;12.434;2022-09-09T01:57:17;98444.94;;;19.75;100.00
61573;BME280;47465;43.094;12.434;2022-09-09T01:59:53;98450.25;;;19.76;100.00
61573;BME280;47465;43.094;12.434;2022-09-09T02:02:30;98476.91;;;19.81;100.00
61573;BME280;47465;43.094;12.434;2022-09-09T02:05:06;98477.31;;;19.75;100.00
61573;BME280;47465;43.094;12.434;2022-09-09T02:07:40;98487.03;;;19.77;100.00
61573;BME280;47465;43.094;12.434;2022-09-09T02:10:11;98490.72;;;19.76;100.00
61573;BME280;47465;43.094;12.434;2022-09-09T02:12:41;98490.06;;;19.73;100.00
61573;BME280;47465;43.094;12.434;2022-09-09T02:15:18;98484.28;;;19.64;100.00
61573;BME280;47465;43.094;12.434;2022-09-09T02:17:49;98476.84;;;19.68;100.00
61573;BME280;47465;43.094;12.434;2022-09-09T02:20:18;98473.66;;;19.76;100.00
61573;BME280;47465;43.094;12.434;2022-09-09T02:22:47;98468.97;;;19.65;100.00
61573;BME280;47465;43.094;12.434;2022-09-09T02:25:17;98466.69;;;19.59;100.00
61573;BME280;47465;43.094;12.434;2022-09-09T02:27:47;98468.22;;;19.63;100.00
61573;BME280;47465;43.094;12.434;2022-09-09T02:30:15;98473.28;;;19.67;100.00
61573;BME280;47465;43.094;12.434;2022-09-09T02:32:42;98472.91;;;19.74;100.00
61573;BME280;47465;43.094;12.434;2022-09-09T02:35:12;98488.97;;;19.75;100.00
61573;BME280;47465;43.094;12.434;2022-09-09T02:37:41;98455.69;;;19.62;100.00
61573;BME280;47465;43.094;12.434;2022-09-09T02:40:10;98479.91;;;19.76;100.00
61573;BME280;47465;43.094;12.434;2022-09-09T02:42:39;98477.31;;;19.75;100.00
61573;BME280;47465;43.094;12.434;2022-09-09T02:45:07;98477.22;;;19.76;100.00
61573;BME280;47465;43.094;12.434;2022-09-09T02:47:35;98477.84;;;19.80;100.00
61573;BME280;47465;43.094;12.434;2022-09-09T02:50:08;98472.78;;;19.75;100.00
61573;BME280;47465;43.094;12.434;2022-09-09T02:52:45;98469.75;;;19.67;100.00
61573;BME280;47465;43.094;12.434;2022-09-09T02:55:18;98462.81;;;19.63;100.00
61573;BME280;47465;43.094;12.434;2022-09-09T02:57:47;98460.13;;;19.63;100.00
61573;BME280;47465;43.094;12.434;2022-09-09T03:00:14;98448.16;;;19.67;100.00
61573;BME280;47465;43.094;12.434;2022-09-09T03:02:40;98456.06;;;19.70;100.00
61573;BME280;47465;43.094;12.434;2022-09-09T03:05:08;98468.56;;;19.71;100.00
61573;BME280;47465;43.094;12.434;2022-09-09T03:07:34;98457.44;;;19.63;100.00
61573;BME280;47465;43.094;12.434;2022-09-09T03:10:02;98459.38;;;19.61;100.00
61573;BME280;47465;43.094;12.434;2022-09-09T03:12:28;98448.25;;;19.53;100.00
61573;BME280;47465;43.094;12.434;2022-09-09T03:14:54;98456.53;;;19.49;100.00
61573;BME280;47465;43.094;12.434;2022-09-09T03:17:19;98459.66;;;19.43;100.00
61573;BME280;47465;43.094;12.434;2022-09-09T03:19:45;98447.31;;;19.26;100.00
61573;BME280;47465;43.094;12.434;2022-09-09T03:22:11;98450.44;;;19.20;100.00
61573;BME280;47465;43.094;12.434;2022-09-09T03:24:39;98442.84;;;19.13;100.00
61573;BME280;47465;43.094;12.434;2022-09-09T03:27:07;98449.09;;;19.00;100.00
61573;BME280;47465;43.094;12.434;2022-09-09T03:29:33;98448.00;;;19.03;100.00
61573;BME280;47465;43.094;12.434;2022-09-09T03:31:58;98447.16;;;19.02;100.00
61573;BME280;47465;43.094;12.434;2022-09-09T03:34:24;98427.03;;;18.81;100.00
61573;BME280;47465;43.094;12.434;2022-09-09T03:36:50;98432.00;;;18.87;100.00
61573;BME280;47465;43.094;12.434;2022-09-09T03:39:16;98426.16;;;18.80;100.00
61573;BME280;47465;43.094;12.434;2022-09-09T03:41:42;98432.50;;;18.79;100.00
61573;BME280;47465;43.094;12.434;2022-09-09T03:44:14;98435.97;;;18.81;100.00
61573;BME280;47465;43.094;12.434;2022-09-09T03:46:40;98424.59;;;18.76;100.00
61573;BME280;47465;43.094;12.434;2022-09-09T03:49:06;98418.75;;;18.70;100.00
61573;BME280;47465;43.094;12.434;2022-09-09T03:51:32;98434.50;;;18.76;100.00
61573;BME280;47465;43.094;12.434;2022-09-09T03:54:01;98443.19;;;18.81;100.00
61573;BME280;47465;43.094;12.434;2022-09-09T03:56:30;98453.88;;;18.82;100.00
61573;BME280;47465;43.094;12.434;2022-09-09T03:58:57;98445.25;;;18.76;100.00
61573;BME280;47465;43.094;12.434;2022-09-09T04:01:24;98449.66;;;18.78;100.00
61573;BME280;47465;43.094;12.434;2022-09-09T04:03:50;98431.06;;;18.74;100.00
61573;BME280;47465;43.094;12.434;2022-09-09T04:06:18;98434.50;;;18.76;100.00
61573;BME280;47465;43.094;12.434;2022-09-09T04:08:45;98447.88;;;18.77;100.00
61573;BME280;47465;43.094;12.434;2022-09-09T04:11:14;98457.88;;;18.90;100.00
61573;BME280;47465;43.094;12.434;2022-09-09T04:13:42;98460.34;;;18.93;100.00
61573;BME280;47465;43.094;12.434;2022-09-09T04:16:10;98423.34;;;18.82;100.00
61573;BME280;47465;43.094;12.434;2022-09-09T04:18:38;98458.78;;;19.03;100.00
61573;BME280;47465;43.094;12.434;2022-09-09T04:21:04;98458.56;;;19.06;100.00
61573;BME280;47465;43.094;12.434;2022-09-09T04:23:32;98448.78;;;19.05;100.00
61573;BME280;47465;43.094;12.434;2022-09-09T04:26:00;98455.28;;;19.15;100.00
61573;BME280;47465;43.094;12.434;2022-09-09T04:28:28;98456.69;;;19.21;100.00
61573;BME280;47465;43.094;12.434;2022-09-09T04:30:54;98451.19;;;19.22;100.00
61573;BME280;47465;43.094;12.434;2022-09-09T04:33:20;98432.81;;;19.15;100.00
61573;BME280;47465;43.094;12.434;2022-09-09T04:35:49;98443.19;;;19.21;100.00
61573;BME280;47465;43.094;12.434;2022-09-09T04:38:16;98450.03;;;19.26;100.00
61573;BME280;47465;43.094;12.434;2022-09-09T04:40:42;98451.63;;;19.29;100.00
61573;BME280;47465;43.094;12.434;2022-09-09T04:43:09;98450.56;;;19.32;100.00
61573;BME280;47465;43.094;12.434;2022-09-09T04:45:35;98462.69;;;19.39;100.00
61573;BME280;47465;43.094;12.434;2022-09-09T04:48:01;98458.03;;;19.41;100.00
61573;BME280;47465;43.094;12.434;2022-09-09T04:50:28;98459.66;;;19.43;100.00
61573;BME280;47465;43.094;12.434;2022-09-09T04:52:55;98456.75;;;19.46;100.00
61573;BME280;47465;43.094;12.434;2022-09-09T04:55:21;98455.88;;;19.46;100.00
61573;BME280;47465;43.094;12.434;2022-09-09T04:57:47;98445.53;;;19.40;100.00
61573;BME280;47465;43.094;12.434;2022-09-09T05:00:14;98453.28;;;19.44;100.00
61573;BME280;47465;43.094;12.434;2022-09-09T05:02:40;98445.28;;;19.43;100.00
61573;BME280;47465;43.094;12.434;2022-09-09T05:05:08;98436.25;;;19.44;100.00
61573;BME280;47465;43.094;12.434;2022-09-09T05:07:34;98462.25;;;19.58;100.00
61573;BME280;47465;43.094;12.434;2022-09-09T05:10:01;98467.47;;;19.61;100.00
61573;BME280;47465;43.094;12.434;2022-09-09T05:12:30;98469.56;;;19.70;100.00
61573;BME280;47465;43.094;12.434;2022-09-09T05:14:56;98471.47;;;19.68;100.00
61573;BME280;47465;43.094;12.434;2022-09-09T05:17:23;98465.41;;;19.64;100.00
61573;BME280;47465;43.094;12.434;2022-09-09T05:19:49;98467.63;;;19.72;100.00
61573;BME280;47465;43.094;12.434;2022-09-09T05:22:18;98457.78;;;19.71;100.00
61573;BME280;47465;43.094;12.434;2022-09-09T05:24:44;98476.13;;;19.79;100.00
61573;BME280;47465;43.094;12.434;2022-09-09T05:27:12;98465.66;;;19.74;100.00
61573;BME280;47465;43.094;12.434;2022-09-09T05:29:37;98460.81;;;19.79;100.00
61573;BME280;47465;43.094;12.434;2022-09-09T05:32:04;98472.47;;;19.93;100.00
61573;BME280;47465;43.094;12.434;2022-09-09T05:34:30;98465.13;;;19.95;100.00
61573;BME280;47465;43.094;12.434;2022-09-09T05:36:56;98458.97;;;20.05;100.00
61573;BME280;47465;43.094;12.434;2022-09-09T05:39:21;98473.03;;;20.23;100.00
61573;BME280;47465;43.094;12.434;2022-09-09T05:41:47;98476.91;;;20.32;100.00
61573;BME280;47465;43.094;12.434;2022-09-09T05:44:15;98464.47;;;20.29;100.00
61573;BME280;47465;43.094;12.434;2022-09-09T05:46:41;98463.69;;;20.27;100.00
61573;BME280;47465;43.094;12.434;2022-09-09T05:49:07;98496.31;;;20.37;100.00
61573;BME280;47465;43.094;12.434;2022-09-09T05:51:34;98468.25;;;20.27;100.00
61573;BME280;47465;43.094;12.434;2022-09-09T05:53:59;98482.81;;;20.37;100.00
61573;BME280;47465;43.094;12.434;2022-09-09T05:56:26;98478.84;;;20.30;100.00
61573;BME280;47465;43.094;12.434;2022-09-09T05:58:53;98482.06;;;20.22;100.00
61573;BME280;47465;43.094;12.434;2022-09-09T06:01:22;98465.88;;;20.09;100.00
61573;BME280;47465;43.094;12.434;2022-09-09T06:03:49;98470.44;;;20.09;100.00
61573;BME280;47465;43.094;12.434;2022-09-09T06:06:17;98468.69;;;20.08;100.00
61573;BME280;47465;43.094;12.434;2022-09-09T06:08:44;98493.19;;;20.30;100.00
61573;BME280;47465;43.094;12.434;2022-09-09T06:11:12;98483.34;;;20.29;100.00
61573;BME280;47465;43.094;12.434;2022-09-09T06:13:39;98479.47;;;20.34;100.00
61573;BME280;47465;43.094;12.434;2022-09-09T06:16:06;98492.09;;;20.46;100.00
61573;BME280;47465;43.094;12.434;2022-09-09T06:18:35;98498.13;;;20.62;100.00
61573;BME280;47465;43.094;12.434;2022-09-09T06:21:02;98484.41;;;20.65;100.00
61573;BME280;47465;43.094;12.434;2022-09-09T06:23:30;98483.75;;;20.75;100.00
61573;BME280;47465;43.094;12.434;2022-09-09T06:26:04;98494.06;;;20.93;100.00
61573;BME280;47465;43.094;12.434;2022-09-09T06:28:31;98481.72;;;21.02;99.57
61573;BME280;47465;43.094;12.434;2022-09-09T06:30:58;98493.31;;;21.16;96.72
61573;BME280;47465;43.094;12.434;2022-09-09T06:33:24;98486.97;;;21.17;97.17
61573;BME280;47465;43.094;12.434;2022-09-09T06:35:53;98472.19;;;21.21;95.53
61573;BME280;47465;43.094;12.434;2022-09-09T06:38:19;98495.16;;;21.39;95.49
61573;BME280;47465;43.094;12.434;2022-09-09T06:40:51;98490.81;;;21.49;95.63
61573;BME280;47465;43.094;12.434;2022-09-09T06:43:17;98502.31;;;21.64;93.37
61573;BME280;47465;43.094;12.434;2022-09-09T06:45:52;98495.19;;;21.74;93.65
61573;BME280;47465;43.094;12.434;2022-09-09T06:48:18;98505.16;;;21.74;91.30
61573;BME280;47465;43.094;12.434;2022-09-09T06:50:44;98505.16;;;21.74;92.26
61573;BME280;47465;43.094;12.434;2022-09-09T06:53:12;98514.97;;;21.99;91.60
61573;BME280;47465;43.094;12.434;2022-09-09T06:55:38;98499.22;;;22.15;89.44
61573;BME280;47465;43.094;12.434;2022-09-09T06:58:07;98517.72;;;22.44;86.94
61573;BME280;47465;43.094;12.434;2022-09-09T07:00:33;98496.69;;;22.59;86.49
61573;BME280;47465;43.094;12.434;2022-09-09T07:02:59;98494.69;;;22.72;85.40
61573;BME280;47465;43.094;12.434;2022-09-09T07:05:25;98486.69;;;22.82;83.90
61573;BME280;47465;43.094;12.434;2022-09-09T07:07:51;98502.34;;;23.01;83.71
61573;BME280;47465;43.094;12.434;2022-09-09T07:10:19;98521.72;;;23.29;82.60
61573;BME280;47465;43.094;12.434;2022-09-09T07:12:45;98510.72;;;23.42;80.78
61573;BME280;47465;43.094;12.434;2022-09-09T07:15:15;98509.22;;;23.49;79.39
61573;BME280;47465;43.094;12.434;2022-09-09T07:17:41;98515.19;;;23.64;79.32
61573;BME280;47465;43.094;12.434;2022-09-09T07:20:07;98514.94;;;23.67;79.82
61573;BME280;47465;43.094;12.434;2022-09-09T07:22:33;98509.22;;;23.70;77.84
61573;BME280;47465;43.094;12.434;2022-09-09T07:24:59;98524.78;;;23.79;77.90
61573;BME280;47465;43.094;12.434;2022-09-09T07:27:26;98513.25;;;23.87;76.58
61573;BME280;47465;43.094;12.434;2022-09-09T07:29:52;98525.41;;;23.71;77.42
61573;BME280;47465;43.094;12.434;2022-09-09T07:32:19;98526.41;;;23.70;76.23
61573;BME280;47465;43.094;12.434;2022-09-09T07:34:45;98521.16;;;23.46;77.31
61573;BME280;47465;43.094;12.434;2022-09-09T07:37:12;98507.31;;;23.61;77.12
61573;BME280;47465;43.094;12.434;2022-09-09T07:39:39;98525.38;;;23.83;76.84
61573;BME280;47465;43.094;12.434;2022-09-09T07:42:05;98515.91;;;23.98;77.21
61573;BME280;47465;43.094;12.434;2022-09-09T07:44:32;98511.31;;;24.19;75.81
61573;BME280;47465;43.094;12.434;2022-09-09T07:47:00;98527.91;;;23.95;75.53
61573;BME280;47465;43.094;12.434;2022-09-09T07:49:26;98529.75;;;23.95;77.02
61573;BME280;47465;43.094;12.434;2022-09-09T07:51:52;98522.06;;;24.21;76.56
61573;BME280;47465;43.094;12.434;2022-09-09T07:54:19;98507.56;;;24.42;75.88
61573;BME280;47465;43.094;12.434;2022-09-09T07:56:46;98521.16;;;24.63;73.83
61573;BME280;47465;43.094;12.434;2022-09-09T07:59:13;98522.59;;;24.36;74.47
61573;BME280;47465;43.094;12.434;2022-09-09T08:01:42;98528.22;;;24.23;75.31
61573;BME280;47465;43.094;12.434;2022-09-09T08:04:10;98533.56;;;24.34;74.85
61573;BME280;47465;43.094;12.434;2022-09-09T08:06:42;98533.53;;;24.25;73.59
61573;BME280;47465;43.094;12.434;2022-09-09T08:09:09;98515.38;;;24.25;74.90
61573;BME280;47465;43.094;12.434;2022-09-09T08:11:35;98512.69;;;24.35;74.20
61573;BME280;47465;43.094;12.434;2022-09-09T08:14:02;98534.06;;;24.18;75.71
61573;BME280;47465;43.094;12.434;2022-09-09T08:16:30;98521.97;;;24.32;74.71
61573;BME280;47465;43.094;12.434;2022-09-09T08:18:58;98517.41;;;24.33;74.13
61573;BME280;47465;43.094;12.434;2022-09-09T08:21:25;98530.25;;;24.31;74.78
61573;BME280;47465;43.094;12.434;2022-09-09T08:23:54;98528.59;;;24.39;72.69
61573;BME280;47465;43.094;12.434;2022-09-09T08:26:22;98532.72;;;24.34;73.09
61573;BME280;47465;43.094;12.434;2022-09-09T08:28:49;98530.00;;;24.34;73.58
61573;BME280;47465;43.094;12.434;2022-09-09T08:31:18;98540.91;;;24.44;73.58
61573;BME280;47465;43.094;12.434;2022-09-09T08:33:45;98513.41;;;24.37;72.71
61573;BME280;47465;43.094;12.434;2022-09-09T08:36:14;98521.88;;;24.65;72.37
61573;BME280;47465;43.094;12.434;2022-09-09T08:38:42;98547.88;;;24.88;72.43
61573;BME280;47465;43.094;12.434;2022-09-09T08:41:36;98539.06;;;25.15;71.59
61573;BME280;47465;43.094;12.434;2022-09-09T08:44:08;98533.44;;;25.38;70.02
61573;BME280;47465;43.094;12.434;2022-09-09T08:46:44;98549.22;;;25.54;69.32
61573;BME280;47465;43.094;12.434;2022-09-09T08:49:23;98544.06;;;25.70;69.81
61573;BME280;47465;43.094;12.434;2022-09-09T08:51:55;98526.00;;;25.59;69.02
61573;BME280;47465;43.094;12.434;2022-09-09T08:54:23;98540.19;;;25.53;70.53
61573;BME280;47465;43.094;12.434;2022-09-09T08:56:51;98541.47;;;25.49;69.88
61573;BME280;47465;43.094;12.434;2022-09-09T08:59:18;98533.88;;;25.62;70.40
61573;BME280;47465;43.094;12.434;2022-09-09T09:01:52;98543.94;;;25.91;69.24
61573;BME280;47465;43.094;12.434;2022-09-09T09:04:37;98539.34;;;26.11;65.34
61573;BME280;47465;43.094;12.434;2022-09-09T09:07:14;98532.16;;;26.10;64.93
61573;BME280;47465;43.094;12.434;2022-09-09T09:09:48;98542.66;;;25.95;67.26
61573;BME280;47465;43.094;12.434;2022-09-09T09:12:20;98526.28;;;25.86;66.23
61573;BME280;47465;43.094;12.434;2022-09-09T09:14:47;98539.94;;;26.05;66.97
61573;BME280;47465;43.094;12.434;2022-09-09T09:17:15;98524.25;;;26.17;65.88
61573;BME280;47465;43.094;12.434;2022-09-09T09:19:42;98524.88;;;26.01;66.83
61573;BME280;47465;43.094;12.434;2022-09-09T09:22:16;98532.88;;;26.12;65.36
61573;BME280;47465;43.094;12.434;2022-09-09T09:24:49;98539.16;;;26.32;65.29
61573;BME280;47465;43.094;12.434;2022-09-09T09:27:34;98536.09;;;26.55;63.09
61573;BME280;47465;43.094;12.434;2022-09-09T09:30:05;98523.84;;;26.69;62.76
61573;BME280;47465;43.094;12.434;2022-09-09T09:32:33;98526.00;;;26.65;61.20
61573;BME280;47465;43.094;12.434;2022-09-09T09:35:02;98509.63;;;26.75;61.81
61573;BME280;47465;43.094;12.434;2022-09-09T09:37:35;98498.78;;;25.98;61.54
61573;BME280;47465;43.094;12.434;2022-09-09T09:40:11;98513.66;;;26.04;63.25
61573;BME280;47465;43.094;12.434;2022-09-09T09:42:48;98520.69;;;26.07;64.76
61573;BME280;47465;43.094;12.434;2022-09-09T09:45:17;98514.78;;;26.21;63.12
61573;BME280;47465;43.094;12.434;2022-09-09T09:47:58;98519.22;;;26.32;62.75
61573;BME280;47465;43.094;12.434;2022-09-09T09:50:24;98510.56;;;26.56;61.56
61573;BME280;47465;43.094;12.434;2022-09-09T09:52:56;98496.22;;;26.81;60.39
61573;BME280;47465;43.094;12.434;2022-09-09T09:55:23;98504.22;;;26.93;61.00
61573;BME280;47465;43.094;12.434;2022-09-09T09:57:50;98479.28;;;27.05;57.39
61573;BME280;47465;43.094;12.434;2022-09-09T10:00:17;98487.72;;;27.12;57.71
61573;BME280;47465;43.094;12.434;2022-09-09T10:02:46;98470.00;;;26.98;55.18
61573;BME280;47465;43.094;12.434;2022-09-09T10:05:14;98479.97;;;26.90;55.18
61573;BME280;47465;43.094;12.434;2022-09-09T10:07:40;98471.25;;;27.04;51.75
61573;BME280;47465;43.094;12.434;2022-09-09T10:10:13;98463.56;;;27.17;51.56
61573;BME280;47465;43.094;12.434;2022-09-09T10:12:49;98486.41;;;26.89;53.73
61573;BME280;47465;43.094;12.434;2022-09-09T10:15:30;98461.81;;;26.98;51.75
61573;BME280;47465;43.094;12.434;2022-09-09T10:18:03;98468.22;;;26.89;46.87
61573;BME280;47465;43.094;12.434;2022-09-09T10:20:40;98471.19;;;26.68;43.52
61573;BME280;47465;43.094;12.434;2022-09-09T10:23:20;98460.41;;;26.67;41.01
61573;BME280;47465;43.094;12.434;2022-09-09T10:26:07;98467.19;;;26.90;46.14
61573;BME280;47465;43.094;12.434;2022-09-09T10:28:54;98475.53;;;26.61;47.85
61573;BME280;47465;43.094;12.434;2022-09-09T10:31:29;98466.09;;;26.83;50.32
61573;BME280;47465;43.094;12.434;2022-09-09T10:34:04;98460.06;;;26.79;46.53
61573;BME280;47465;43.094;12.434;2022-09-09T10:36:39;98454.34;;;27.00;47.19
61573;BME280;47465;43.094;12.434;2022-09-09T10:39:17;98456.75;;;27.31;48.41
61573;BME280;47465;43.094;12.434;2022-09-09T10:41:57;98447.28;;;27.25;48.89
61573;BME280;47465;43.094;12.434;2022-09-09T10:44:30;98458.25;;;27.16;50.27
61573;BME280;47465;43.094;12.434;2022-09-09T10:50:14;98457.53;;;26.68;54.44
61573;BME280;47465;43.094;12.434;2022-09-09T10:52:51;98450.25;;;26.87;55.46
61573;BME280;47465;43.094;12.434;2022-09-09T10:55:25;98449.28;;;27.05;54.02
61573;BME280;47465;43.094;12.434;2022-09-09T10:57:58;98435.56;;;27.15;53.50
61573;BME280;47465;43.094;12.434;2022-09-09T11:00:27;98432.41;;;27.38;54.27
61573;BME280;47465;43.094;12.434;2022-09-09T11:02:59;98446.34;;;27.71;54.17
61573;BME280;47465;43.094;12.434;2022-09-09T11:05:29;98444.84;;;27.04;51.71
61573;BME280;47465;43.094;12.434;2022-09-09T11:07:58;98443.34;;;26.64;53.91
61573;BME280;47465;43.094;12.434;2022-09-09T11:10:30;98444.50;;;26.62;54.14
61573;BME280;47465;43.094;12.434;2022-09-09T11:13:04;98431.69;;;26.72;54.56
61573;BME280;47465;43.094;12.434;2022-09-09T11:15:35;98452.72;;;26.80;53.61
61573;BME280;47465;43.094;12.434;2022-09-09T11:18:04;98429.72;;;26.55;54.75
61573;BME280;47465;43.094;12.434;2022-09-09T11:20:32;98423.56;;;26.80;52.61
61573;BME280;47465;43.094;12.434;2022-09-09T11:23:02;98420.09;;;27.06;52.96
61573;BME280;47465;43.094;12.434;2022-09-09T11:25:36;98417.44;;;26.78;53.27
61573;BME280;47465;43.094;12.434;2022-09-09T11:28:28;98425.03;;;26.57;56.18
61573;BME280;47465;43.094;12.434;2022-09-09T11:31:07;98435.56;;;26.70;57.02
61573;BME280;47465;43.094;12.434;2022-09-09T11:33:58;98439.19;;;26.88;55.70
61573;BME280;47465;43.094;12.434;2022-09-09T11:36:43;98440.50;;;26.56;54.83
61573;BME280;47465;43.094;12.434;2022-09-09T11:39:38;98431.91;;;26.51;55.32
61573;BME280;47465;43.094;12.434;2022-09-09T11:42:22;98438.91;;;26.63;54.78
61573;BME280;47465;43.094;12.434;2022-09-09T11:44:51;98420.09;;;27.06;52.99
61573;BME280;47465;43.094;12.434;2022-09-09T11:47:24;98417.09;;;27.45;51.40
61573;BME280;47465;43.094;12.434;2022-09-09T11:49:55;98428.13;;;27.35;50.01
61573;BME280;47465;43.094;12.434;2022-09-09T11:52:23;98411.16;;;26.96;51.44
61573;BME280;47465;43.094;12.434;2022-09-09T11:54:51;98426.50;;;26.69;51.48
61573;BME280;47465;43.094;12.434;2022-09-09T11:57:24;98422.69;;;26.52;51.29
61573;BME280;47465;43.094;12.434;2022-09-09T11:59:52;98439.66;;;26.83;49.69
61573;BME280;47465;43.094;12.434;2022-09-09T12:02:22;98426.72;;;26.58;51.80
61573;BME280;47465;43.094;12.434;2022-09-09T12:04:55;98405.84;;;26.94;47.70
61573;BME280;47465;43.094;12.434;2022-09-09T12:07:31;98436.31;;;27.35;47.88
61573;BME280;47465;43.094;12.434;2022-09-09T12:10:02;98417.94;;;27.10;44.67
61573;BME280;47465;43.094;12.434;2022-09-09T12:12:30;98423.56;;;26.80;46.03
61573;BME280;47465;43.094;12.434;2022-09-09T12:17:44;98398.38;;;27.32;46.36
61573;BME280;47465;43.094;12.434;2022-09-09T12:20:13;98399.09;;;27.78;45.23
61573;BME280;47465;43.094;12.434;2022-09-09T12:23:11;98421.50;;;28.34;45.24
61573;BME280;47465;43.094;12.434;2022-09-09T12:25:57;98422.13;;;28.20;40.47
61573;BME280;47465;43.094;12.434;2022-09-09T12:28:27;98429.28;;;28.21;41.02
61573;BME280;47465;43.094;12.434;2022-09-09T12:31:07;98436.00;;;28.00;39.21
61573;BME280;47465;43.094;12.434;2022-09-09T12:33:37;98432.28;;;28.10;40.22
61573;BME280;47465;43.094;12.434;2022-09-09T12:36:04;98426.53;;;28.21;37.35
61573;BME280;47465;43.094;12.434;2022-09-09T12:38:34;98417.53;;;28.29;37.02
61573;BME280;47465;43.094;12.434;2022-09-09T12:41:01;98420.19;;;28.46;34.30
61573;BME280;47465;43.094;12.434;2022-09-09T12:43:28;98415.91;;;28.44;35.03
61573;BME280;47465;43.094;12.434;2022-09-09T12:45:57;98419.41;;;28.62;35.29
61573;BME280;47465;43.094;12.434;2022-09-09T12:48:31;98411.03;;;28.56;35.23
61573;BME280;47465;43.094;12.434;2022-09-09T12:50:59;98404.63;;;28.47;31.88
61573;BME280;47465;43.094;12.434;2022-09-09T12:53:28;98420.63;;;28.34;32.24
61573;BME280;47465;43.094;12.434;2022-09-09T12:55:56;98421.28;;;28.27;30.11
61573;BME280;47465;43.094;12.434;2022-09-09T12:58:23;98416.75;;;28.44;31.64
61573;BME280;47465;43.094;12.434;2022-09-09T13:00:51;98424.34;;;28.51;31.11
61573;BME280;47465;43.094;12.434;2022-09-09T13:03:18;98424.72;;;28.30;30.34
61573;BME280;47465;43.094;12.434;2022-09-09T13:05:46;98406.59;;;28.29;30.55